createdAt,value
2022-07-31T00:00:43.341Z,34.70
2022-07-31T00:03:45.355Z,34.80
2022-07-31T00:06:47.597Z,35.10
2022-07-31T00:09:54.500Z,35.30
2022-07-31T00:12:56.922Z,35.40
2022-07-31T00:15:58.932Z,35.30
2022-07-31T00:19:01.351Z,35.30
2022-07-31T00:22:03.494Z,35.40
2022-07-31T00:25:06.515Z,35.40
2022-07-31T00:28:08.526Z,35.40
2022-07-31T00:31:10.668Z,35.50
2022-07-31T00:34:12.657Z,35.60
2022-07-31T00:37:14.823Z,35.60
2022-07-31T00:40:17.484Z,35.80
2022-07-31T00:43:19.719Z,35.90
2022-07-31T00:46:21.660Z,36.00
2022-07-31T00:49:25.432Z,36.00
2022-07-31T00:52:27.475Z,36.00
2022-07-31T00:55:30.023Z,36.00
2022-07-31T00:58:33.069Z,36.00
2022-07-31T01:01:35.250Z,36.00
2022-07-31T01:04:37.392Z,36.10
2022-07-31T01:07:43.925Z,36.10
2022-07-31T01:11:03.829Z,36.00
2022-07-31T01:14:07.913Z,35.80
2022-07-31T01:17:10.755Z,35.80
2022-07-31T01:20:14.161Z,35.60
2022-07-31T01:23:50.412Z,35.70
2022-07-31T01:27:06.190Z,35.80
2022-07-31T01:30:08.648Z,35.70
2022-07-31T01:33:17.621Z,35.70
2022-07-31T01:36:27.038Z,35.50
2022-07-31T01:39:34.263Z,35.50
2022-07-31T01:42:41.200Z,35.40
2022-07-31T01:45:46.174Z,35.30
2022-07-31T01:48:49.856Z,35.10
2022-07-31T01:51:53.212Z,34.80
2022-07-31T01:54:58.778Z,34.90
2022-07-31T01:58:02.386Z,34.90
2022-07-31T02:01:08.251Z,35.00
2022-07-31T02:04:12.355Z,35.20
2022-07-31T02:07:16.265Z,35.10
2022-07-31T02:10:20.213Z,35.20
2022-07-31T02:13:23.873Z,35.30
2022-07-31T02:16:27.679Z,35.00
2022-07-31T02:19:31.208Z,35.20
2022-07-31T02:22:34.967Z,35.00
2022-07-31T02:25:37.905Z,35.10
2022-07-31T02:28:43.794Z,35.10
2022-07-31T02:31:48.348Z,34.80
2022-07-31T02:35:06.239Z,34.90
2022-07-31T02:38:13.539Z,34.70
2022-07-31T02:41:26.392Z,34.70
2022-07-31T02:44:31.794Z,34.90
2022-07-31T02:47:34.557Z,35.10
2022-07-31T02:50:37.761Z,35.10
2022-07-31T02:53:40.076Z,35.10
2022-07-31T02:56:43.215Z,35.10
2022-07-31T02:59:45.341Z,35.20
2022-07-31T03:02:47.831Z,34.90
2022-07-31T03:05:50.042Z,34.90
2022-07-31T03:08:52.019Z,34.80
2022-07-31T03:11:54.364Z,34.90
2022-07-31T03:14:57.749Z,34.80
2022-07-31T03:18:00.636Z,34.90
2022-07-31T03:21:02.859Z,34.90
2022-07-31T03:24:05.266Z,34.90
2022-07-31T03:27:07.247Z,34.50
2022-07-31T03:30:16.760Z,34.70
2022-07-31T03:33:18.951Z,34.30
2022-07-31T03:36:21.060Z,34.20
2022-07-31T03:39:23.217Z,34.50
2022-07-31T03:42:26.808Z,34.60
2022-07-31T03:45:30.568Z,34.80
2022-07-31T03:48:32.796Z,34.60
2022-07-31T03:51:34.880Z,34.80
2022-07-31T03:54:37.037Z,34.70
2022-07-31T03:57:39.964Z,34.90
2022-07-31T04:00:44.585Z,35.00
2022-07-31T04:03:46.551Z,35.20
2022-07-31T04:06:48.791Z,35.40
2022-07-31T04:09:50.809Z,35.40
2022-07-31T04:12:53.146Z,35.50
2022-07-31T04:15:55.526Z,35.40
2022-07-31T04:18:57.900Z,35.20
2022-07-31T04:22:00.784Z,35.30
2022-07-31T04:25:03.347Z,35.20
2022-07-31T04:28:05.289Z,35.40
2022-07-31T04:31:07.421Z,35.30
2022-07-31T04:34:09.450Z,35.20
2022-07-31T04:37:11.564Z,35.30
2022-07-31T04:40:13.517Z,35.20
2022-07-31T04:43:16.996Z,35.10
2022-07-31T04:46:19.108Z,34.80
2022-07-31T04:49:21.250Z,34.90
2022-07-31T04:52:23.207Z,34.70
2022-07-31T04:55:25.480Z,35.30
2022-07-31T04:58:27.418Z,35.60
2022-07-31T05:01:29.709Z,35.70
2022-07-31T05:04:31.663Z,35.80
2022-07-31T05:07:34.695Z,35.80
2022-07-31T05:10:55.484Z,36.00
2022-07-31T05:14:00.394Z,36.10
2022-07-31T05:17:02.365Z,36.00
2022-07-31T05:20:05.108Z,35.80
2022-07-31T05:23:07.150Z,35.70
2022-07-31T05:26:10.171Z,35.50
2022-07-31T05:29:12.198Z,35.20
2022-07-31T05:32:14.752Z,35.40
2022-07-31T05:35:16.861Z,35.00
2022-07-31T05:38:18.995Z,34.60
2022-07-31T05:41:21.295Z,34.40
2022-07-31T05:44:23.495Z,34.30
2022-07-31T05:47:25.481Z,34.30
2022-07-31T05:50:47.173Z,34.20
2022-07-31T05:53:49.228Z,34.10
2022-07-31T05:56:51.453Z,34.20
2022-07-31T05:59:53.508Z,34.70
2022-07-31T06:02:56.542Z,35.00
2022-07-31T06:05:58.553Z,34.70
2022-07-31T06:09:04.463Z,34.70
2022-07-31T06:12:07.222Z,35.00
2022-07-31T06:15:10.058Z,35.10
2022-07-31T06:18:14.567Z,34.60
2022-07-31T06:24:17.643Z,34.50
2022-07-31T06:27:33.515Z,34.60
2022-07-31T06:30:36.288Z,34.40
2022-07-31T06:33:38.416Z,34.40
2022-07-31T06:36:40.396Z,34.30
2022-07-31T06:39:55.659Z,34.10
2022-07-31T06:42:58.427Z,34.30
2022-07-31T06:46:00.614Z,34.20
2022-07-31T06:49:06.798Z,34.70
2022-07-31T06:52:11.117Z,34.50
2022-07-31T06:55:13.101Z,34.10
2022-07-31T06:58:15.333Z,33.90
2022-07-31T07:01:17.412Z,33.50
2022-07-31T07:04:19.573Z,33.60
2022-07-31T07:07:21.558Z,33.60
2022-07-31T07:10:23.876Z,33.90
2022-07-31T07:13:45.120Z,33.50
2022-07-31T07:16:48.690Z,34.00
2022-07-31T07:19:54.787Z,34.50
2022-07-31T07:22:57.821Z,33.90
2022-07-31T07:25:59.820Z,33.80
2022-07-31T07:29:02.596Z,34.00
2022-07-31T07:32:05.211Z,34.50
2022-07-31T07:35:09.315Z,34.70
2022-07-31T07:38:11.282Z,34.70
2022-07-31T07:41:13.471Z,35.00
2022-07-31T07:44:20.559Z,34.90
2022-07-31T07:47:22.914Z,35.40
2022-07-31T07:50:26.935Z,36.10
2022-07-31T07:53:31.504Z,36.50
2022-07-31T07:56:33.534Z,36.60
2022-07-31T07:59:35.661Z,36.90
2022-07-31T08:02:37.958Z,37.20
2022-07-31T08:05:40.131Z,36.80
2022-07-31T08:08:42.182Z,36.20
2022-07-31T08:11:44.854Z,36.40
2022-07-31T08:14:46.841Z,36.40
2022-07-31T08:17:48.965Z,36.50
2022-07-31T08:20:50.988Z,36.40
2022-07-31T08:23:53.128Z,36.60
2022-07-31T08:27:13.668Z,36.90
2022-07-31T08:30:17.727Z,37.50
2022-07-31T08:33:20.073Z,37.70
2022-07-31T08:36:22.641Z,37.70
2022-07-31T08:39:25.124Z,37.70
2022-07-31T08:42:27.296Z,37.20
2022-07-31T08:45:29.481Z,37.10
2022-07-31T08:48:33.310Z,37.50
2022-07-31T08:51:51.388Z,36.40
2022-07-31T08:54:55.173Z,36.30
2022-07-31T08:57:57.262Z,35.80
2022-07-31T09:01:00.116Z,34.80
2022-07-31T09:04:02.554Z,34.10
2022-07-31T09:07:05.654Z,34.20
2022-07-31T09:10:19.730Z,33.90
2022-07-31T09:13:22.010Z,33.80
2022-07-31T09:16:30.373Z,34.20
2022-07-31T09:19:54.257Z,34.40
2022-07-31T09:23:08.017Z,34.40
2022-07-31T09:26:10.413Z,33.90
2022-07-31T09:29:12.969Z,34.10
2022-07-31T09:32:17.889Z,34.60
2022-07-31T09:35:19.933Z,34.50
2022-07-31T09:38:29.053Z,34.70
2022-07-31T09:41:56.637Z,35.10
2022-07-31T09:44:53.330Z,34.90
2022-07-31T09:48:14.368Z,33.70
2022-07-31T09:51:19.621Z,33.40
2022-07-31T09:54:24.482Z,33.90
2022-07-31T09:57:26.730Z,33.80
2022-07-31T10:00:29.328Z,33.20
2022-07-31T10:03:32.356Z,32.90
2022-07-31T10:06:36.057Z,33.20
2022-07-31T10:09:40.394Z,34.30
2022-07-31T10:12:46.703Z,34.50
2022-07-31T10:15:52.056Z,34.80
2022-07-31T10:19:01.298Z,34.80
2022-07-31T10:22:05.336Z,34.70
2022-07-31T10:25:09.659Z,35.10
2022-07-31T10:28:12.796Z,35.00
2022-07-31T10:31:15.582Z,35.30
2022-07-31T10:34:18.292Z,35.00
2022-07-31T10:37:35.074Z,34.30
2022-07-31T10:40:51.086Z,35.00
2022-07-31T10:44:00.865Z,35.50
2022-07-31T10:47:16.507Z,34.70
2022-07-31T10:50:26.998Z,34.70
2022-07-31T10:53:50.258Z,35.20
2022-07-31T10:56:52.027Z,35.40
2022-07-31T10:59:54.456Z,35.60
2022-07-31T11:02:56.409Z,35.70
2022-07-31T11:06:01.336Z,36.00
2022-07-31T11:09:04.767Z,35.20
2022-07-31T11:12:18.484Z,35.70
2022-07-31T11:15:27.785Z,35.70
2022-07-31T11:18:34.415Z,35.20
2022-07-31T11:21:40.213Z,34.80
2022-07-31T11:24:42.533Z,35.40
2022-07-31T11:27:44.544Z,35.70
2022-07-31T11:30:59.700Z,35.50
2022-07-31T11:34:04.149Z,35.50
2022-07-31T11:37:07.561Z,35.90
2022-07-31T11:40:10.127Z,35.60
2022-07-31T11:43:28.717Z,36.00
2022-07-31T11:46:34.805Z,36.40
2022-07-31T11:49:47.689Z,36.40
2022-07-31T11:53:01.498Z,35.80
2022-07-31T11:56:04.100Z,34.90
2022-07-31T11:59:06.339Z,34.90
2022-07-31T12:02:13.264Z,35.80
2022-07-31T12:05:15.463Z,36.60
2022-07-31T12:08:18.106Z,36.30
2022-07-31T12:11:21.202Z,35.90
2022-07-31T12:14:39.858Z,35.40
2022-07-31T12:17:42.020Z,35.20
2022-07-31T12:20:52.736Z,36.50
2022-07-31T12:23:54.647Z,36.80
2022-07-31T12:27:00.360Z,36.50
2022-07-31T12:30:13.786Z,37.30
2022-07-31T12:33:15.948Z,37.00
2022-07-31T12:36:18.052Z,37.20
2022-07-31T12:39:20.195Z,37.40
2022-07-31T12:42:30.216Z,37.20
2022-07-31T12:45:38.299Z,37.10
2022-07-31T12:48:44.406Z,36.30
2022-07-31T12:51:48.316Z,36.40
2022-07-31T12:54:50.618Z,36.30
2022-07-31T12:57:53.158Z,37.30
2022-07-31T13:00:57.100Z,36.80
2022-07-31T13:03:59.572Z,36.20
2022-07-31T13:07:02.203Z,36.30
2022-07-31T13:10:21.012Z,37.20
2022-07-31T13:13:25.591Z,37.70
2022-07-31T13:16:27.918Z,37.70
2022-07-31T13:19:31.311Z,38.00
2022-07-31T13:22:33.539Z,37.50
2022-07-31T13:25:35.515Z,36.90
2022-07-31T13:28:37.740Z,37.00
2022-07-31T13:31:39.811Z,37.00
2022-07-31T13:34:42.170Z,37.50
2022-07-31T13:37:44.150Z,36.60
2022-07-31T13:41:05.117Z,36.90
2022-07-31T13:44:07.448Z,37.40
2022-07-31T13:47:09.633Z,37.50
2022-07-31T13:50:11.819Z,37.30
2022-07-31T13:53:13.969Z,36.80
2022-07-31T13:56:34.073Z,36.80
2022-07-31T13:59:38.923Z,36.90
2022-07-31T14:02:44.477Z,36.70
2022-07-31T14:05:46.753Z,37.30
2022-07-31T14:08:50.883Z,37.70
2022-07-31T14:11:53.108Z,36.70
2022-07-31T14:15:07.357Z,36.80
2022-07-31T14:18:09.644Z,37.50
2022-07-31T14:21:11.870Z,37.70
2022-07-31T14:24:18.773Z,37.80
2022-07-31T14:27:20.809Z,37.80
2022-07-31T14:30:23.033Z,36.50
2022-07-31T14:33:25.117Z,36.20
2022-07-31T14:36:27.413Z,36.90
2022-07-31T14:39:29.375Z,37.80
2022-07-31T14:42:31.923Z,37.40
2022-07-31T14:45:51.216Z,37.00
2022-07-31T14:48:54.255Z,37.30
2022-07-31T14:51:56.266Z,37.80
2022-07-31T14:55:00.947Z,37.50
2022-07-31T14:58:10.391Z,37.50
2022-07-31T15:01:13.436Z,37.60
2022-07-31T15:04:20.234Z,37.60
2022-07-31T15:07:41.246Z,38.20
2022-07-31T15:10:49.634Z,38.90
2022-07-31T15:13:51.644Z,38.50
2022-07-31T15:16:53.817Z,38.40
2022-07-31T15:19:55.805Z,38.30
2022-07-31T15:22:58.202Z,38.50
2022-07-31T15:26:00.198Z,38.30
2022-07-31T15:29:02.371Z,38.20
2022-07-31T15:32:04.697Z,37.50
2022-07-31T15:35:09.521Z,38.30
2022-07-31T15:38:11.474Z,38.00
2022-07-31T15:41:13.663Z,37.40
2022-07-31T15:44:21.067Z,37.00
2022-07-31T15:47:23.546Z,38.20
2022-07-31T15:50:25.664Z,37.90
2022-07-31T15:53:34.084Z,37.90
2022-07-31T15:56:41.279Z,38.10
2022-07-31T15:59:43.668Z,38.20
2022-07-31T16:02:45.876Z,38.30
2022-07-31T16:05:55.732Z,38.70
2022-07-31T16:08:58.296Z,38.20
2022-07-31T16:12:04.249Z,38.00
2022-07-31T16:15:08.171Z,38.00
2022-07-31T16:18:18.450Z,38.60
2022-07-31T16:21:20.796Z,39.00
2022-07-31T16:24:22.982Z,38.70
2022-07-31T16:27:26.215Z,38.10
2022-07-31T16:30:28.532Z,38.50
2022-07-31T16:33:30.477Z,38.80
2022-07-31T16:36:32.847Z,38.50
2022-07-31T16:39:34.821Z,38.50
2022-07-31T16:42:37.234Z,38.50
2022-07-31T16:45:39.376Z,38.30
2022-07-31T16:48:41.801Z,38.00
2022-07-31T16:51:43.810Z,38.40
2022-07-31T16:54:46.526Z,38.40
2022-07-31T16:57:48.487Z,38.50
2022-07-31T17:00:51.603Z,38.60
2022-07-31T17:04:00.824Z,38.80
2022-07-31T17:07:04.655Z,39.10
2022-07-31T17:10:07.381Z,39.20
2022-07-31T17:13:09.502Z,39.30
2022-07-31T17:16:11.435Z,39.30
2022-07-31T17:19:13.613Z,39.30
2022-07-31T17:22:17.698Z,39.20
2022-07-31T17:25:21.851Z,38.50
2022-07-31T17:28:23.864Z,38.20
2022-07-31T17:31:26.033Z,38.20
2022-07-31T17:34:28.077Z,37.90
2022-07-31T17:37:30.212Z,38.40
2022-07-31T17:40:44.345Z,38.30
2022-07-31T17:43:50.508Z,38.30
2022-07-31T17:46:55.420Z,38.70
2022-07-31T17:50:00.369Z,39.00
2022-07-31T17:53:02.734Z,39.40
2022-07-31T17:56:05.400Z,39.50
2022-07-31T17:59:07.374Z,39.60
2022-07-31T18:02:10.224Z,39.70
2022-07-31T18:05:12.550Z,39.70
2022-07-31T18:08:14.830Z,39.70
2022-07-31T18:11:17.245Z,39.60
2022-07-31T18:14:20.497Z,39.70
2022-07-31T18:17:28.402Z,39.70
2022-07-31T18:20:30.697Z,39.60
2022-07-31T18:23:32.838Z,39.60
2022-07-31T18:26:36.089Z,39.50
2022-07-31T18:29:38.245Z,39.50
2022-07-31T18:32:40.731Z,39.40
2022-07-31T18:35:46.217Z,39.20
2022-07-31T18:38:48.716Z,39.10
2022-07-31T18:41:51.081Z,39.00
2022-07-31T18:44:53.587Z,38.80
2022-07-31T18:47:55.722Z,38.70
2022-07-31T18:51:04.527Z,38.50
2022-07-31T18:54:06.991Z,38.40
2022-07-31T18:57:09.218Z,38.30
2022-07-31T19:00:11.627Z,38.20
2022-07-31T19:03:13.778Z,38.10
2022-07-31T19:06:16.206Z,38.10
2022-07-31T19:09:19.711Z,37.90
2022-07-31T19:12:21.827Z,37.80
2022-07-31T19:15:24.069Z,37.60
2022-07-31T19:18:28.799Z,37.50
2022-07-31T19:21:41.603Z,37.50
2022-07-31T19:24:44.965Z,37.50
2022-07-31T19:27:50.228Z,37.50
2022-07-31T19:30:53.457Z,37.30
2022-07-31T19:33:55.603Z,37.20
2022-07-31T19:36:57.530Z,37.00
2022-07-31T19:39:59.802Z,37.10
2022-07-31T19:43:02.723Z,37.10
2022-07-31T19:46:11.305Z,37.20
2022-07-31T19:49:14.639Z,37.20
2022-07-31T19:52:16.922Z,37.20
2022-07-31T19:55:18.847Z,37.20
2022-07-31T19:58:21.689Z,37.30
2022-07-31T20:01:23.749Z,37.30
2022-07-31T20:04:25.964Z,37.20
2022-07-31T20:07:32.569Z,37.20
2022-07-31T20:10:35.195Z,37.10
2022-07-31T20:13:38.640Z,37.00
2022-07-31T20:16:40.991Z,36.90
2022-07-31T20:20:14.737Z,36.90
2022-07-31T20:23:06.086Z,36.80
2022-07-31T20:26:12.681Z,36.80
2022-07-31T20:29:14.793Z,36.70
2022-07-31T20:32:16.723Z,36.70
2022-07-31T20:35:45.550Z,36.60
2022-07-31T20:38:47.745Z,36.50
2022-07-31T20:41:49.853Z,36.50
2022-07-31T20:44:51.872Z,36.40
2022-07-31T20:47:56.616Z,36.30
2022-07-31T20:51:03.660Z,36.30
2022-07-31T20:54:06.053Z,36.30
2022-07-31T20:57:08.081Z,36.20
2022-07-31T21:00:11.604Z,36.20
2022-07-31T21:03:14.207Z,36.20
2022-07-31T21:06:16.595Z,36.10
2022-07-31T21:09:18.909Z,36.20
2022-07-31T21:12:21.019Z,36.10
2022-07-31T21:15:42.116Z,36.10
2022-07-31T21:18:45.728Z,36.10
2022-07-31T21:21:47.785Z,36.10
2022-07-31T21:24:50.190Z,36.00
2022-07-31T21:27:52.186Z,36.00
2022-07-31T21:30:56.423Z,36.00
2022-07-31T21:33:58.899Z,35.90
2022-07-31T21:37:01.703Z,35.90
2022-07-31T21:40:04.656Z,35.90
2022-07-31T21:43:07.618Z,35.90
2022-07-31T21:46:15.970Z,35.80
2022-07-31T21:49:22.055Z,35.80
2022-07-31T21:52:27.221Z,35.70
2022-07-31T21:55:29.369Z,35.70
2022-07-31T21:58:31.298Z,35.70
2022-07-31T22:01:33.735Z,35.60
2022-07-31T22:04:35.706Z,35.70
2022-07-31T22:07:44.572Z,35.60
2022-07-31T22:10:47.296Z,35.60
2022-07-31T22:13:49.505Z,35.60
2022-07-31T22:16:51.464Z,35.60
2022-07-31T22:19:58.559Z,35.60
2022-07-31T22:23:00.678Z,35.60
2022-07-31T22:26:03.869Z,35.50
2022-07-31T22:29:06.043Z,35.60
2022-07-31T22:32:08.909Z,35.60
2022-07-31T22:35:12.648Z,35.60
2022-07-31T22:38:15.941Z,35.60
2022-07-31T22:41:17.899Z,35.60
2022-07-31T22:44:23.087Z,35.60
2022-07-31T22:47:27.155Z,35.50
2022-07-31T22:50:29.434Z,35.50
2022-07-31T22:53:31.436Z,35.50
2022-07-31T22:56:33.584Z,35.40
2022-07-31T22:59:35.559Z,35.40
2022-07-31T23:02:38.024Z,35.40
2022-07-31T23:06:02.759Z,35.40
2022-07-31T23:09:02.435Z,35.40
2022-07-31T23:12:04.958Z,35.30
2022-07-31T23:15:07.595Z,35.30
2022-07-31T23:18:10.568Z,35.30
2022-07-31T23:21:12.839Z,35.20
2022-07-31T23:24:14.767Z,35.20
2022-07-31T23:27:17.017Z,35.20
2022-07-31T23:30:18.998Z,35.20
2022-07-31T23:33:21.121Z,35.10
2022-07-31T23:36:23.254Z,35.10
2022-07-31T23:39:25.485Z,35.10
2022-07-31T23:42:39.552Z,35.10
2022-07-31T23:45:41.760Z,35.00
2022-07-31T23:48:46.039Z,35.00
2022-07-31T23:51:48.201Z,35.00
2022-07-31T23:54:50.185Z,35.10
2022-07-31T23:57:52.255Z,35.10
